Time;durP1;ratioP1;P1;durP2;ratioP2;P2;SDS_P1;SDS_P2;PMS_P1;PMS_P2;Temp;Humidity;BMP_temperature;BMP_pressure;BME280_temperature;BME280_humidity;BME280_pressure;Samples;Min_cycle;Max_cycle;Signal;HPM_P1;HPM_P2
2021/09/14 00:01:09;;;;;;;7.07;6.47;;;18.10;99.90;;;;;;5028325;28;20729;-50
2021/09/14 00:03:35;;;;;;;6.80;6.20;;;18.10;99.90;;;;;;5032811;28;20194;-50
2021/09/14 00:06:01;;;;;;;6.53;5.93;;;18.10;99.90;;;;;;5032668;28;20196;-49
2021/09/14 00:08:27;;;;;;;7.43;6.73;;;18.10;99.90;;;;;;5038821;28;20467;-50
2021/09/14 00:10:52;;;;;;;7.43;6.73;;;18.10;99.90;;;;;;5037691;28;20189;-49
2021/09/14 00:13:18;;;;;;;7.63;6.93;;;18.00;99.90;;;;;;5025788;28;20198;-50
2021/09/14 00:15:44;;;;;;;7.30;6.63;;;18.00;99.90;;;;;;5037806;28;20193;-50
2021/09/14 00:18:10;;;;;;;7.47;6.80;;;18.10;99.90;;;;;;5033362;28;20318;-49
2021/09/14 00:20:36;;;;;;;7.80;6.90;;;18.00;99.90;;;;;;5033493;28;20503;-49
2021/09/14 00:23:03;;;;;;;8.60;7.00;;;18.10;99.90;;;;;;5029963;28;20436;-49
2021/09/14 00:25:32;;;;;;;7.78;6.97;;;18.10;99.90;;;;;;5032154;28;20285;-49
2021/09/14 00:27:58;;;;;;;7.70;7.10;;;18.10;99.90;;;;;;5033816;28;20198;-50
2021/09/14 00:30:24;;;;;;;6.28;5.60;;;18.10;99.90;;;;;;5032495;28;20201;-50
2021/09/14 00:32:50;;;;;;;7.53;6.87;;;18.10;99.90;;;;;;5031977;28;20186;-49
2021/09/14 00:35:16;;;;;;;7.50;6.80;;;18.00;99.90;;;;;;5036149;28;20459;-49
2021/09/14 00:37:42;;;;;;;7.10;6.50;;;18.00;99.90;;;;;;5025589;28;20539;-50
2021/09/14 00:40:08;;;;;;;7.60;6.87;;;18.00;99.90;;;;;;5032939;28;20555;-50
2021/09/14 00:42:35;;;;;;;7.40;6.70;;;18.00;99.90;;;;;;5029252;28;20182;-50
2021/09/14 00:45:01;;;;;;;8.07;7.43;;;18.10;99.90;;;;;;5031821;28;20198;-50
2021/09/14 00:47:27;;;;;;;7.78;6.32;;;18.00;99.90;;;;;;5031905;28;20206;-50
2021/09/14 00:49:52;;;;;;;8.20;7.40;;;17.90;99.90;;;;;;5030160;28;20186;-50
2021/09/14 00:52:18;;;;;;;7.70;7.00;;;17.80;99.90;;;;;;5036060;28;20235;-50
2021/09/14 00:54:44;;;;;;;7.17;6.50;;;17.70;99.90;;;;;;5041843;28;20230;-50
2021/09/14 00:57:10;;;;;;;7.32;6.63;;;18.00;99.90;;;;;;5034399;28;20256;-49
2021/09/14 00:59:36;;;;;;;7.75;7.05;;;17.80;99.90;;;;;;5036694;28;20251;-50
2021/09/14 01:02:03;;;;;;;7.00;6.30;;;17.80;99.90;;;;;;5038461;28;20185;-49
2021/09/14 01:04:29;;;;;;;7.18;6.57;;;17.80;99.90;;;;;;5038731;28;20208;-50
2021/09/14 01:06:55;;;;;;;8.85;7.13;;;17.90;99.90;;;;;;5027304;28;20190;-50
2021/09/14 01:09:21;;;;;;;7.30;6.73;;;17.90;99.90;;;;;;5033628;28;20227;-49
2021/09/14 01:11:47;;;;;;;7.30;6.70;;;17.90;99.90;;;;;;5031400;28;20182;-50
2021/09/14 01:14:13;;;;;;;6.90;6.30;;;17.80;99.90;;;;;;5030639;28;20240;-50
2021/09/14 01:16:40;;;;;;;7.17;6.47;;;17.80;99.90;;;;;;5030683;28;20193;-50
2021/09/14 01:19:08;;;;;;;6.30;5.80;;;17.90;99.90;;;;;;5030552;28;20600;-50
2021/09/14 01:21:34;;;;;;;9.02;6.80;;;17.60;99.90;;;;;;5022286;28;20175;-50
2021/09/14 01:24:01;;;;;;;6.37;5.87;;;18.00;99.90;;;;;;5028515;28;20243;-50
2021/09/14 01:26:28;;;;;;;7.00;6.50;;;17.80;99.90;;;;;;5035308;28;20874;-50
2021/09/14 01:28:53;;;;;;;7.07;6.47;;;17.80;99.90;;;;;;5027832;28;20200;-50
2021/09/14 01:31:20;;;;;;;7.43;6.20;;;17.70;99.90;;;;;;5035650;28;20186;-50
2021/09/14 01:33:50;;;;;;;6.82;6.22;;;17.60;99.90;;;;;;5030687;28;20200;-50
2021/09/14 01:36:16;;;;;;;7.43;6.68;;;17.60;99.90;;;;;;5024320;28;20179;-50
2021/09/14 01:38:43;;;;;;;7.60;6.88;;;17.60;99.90;;;;;;5030626;28;20205;-50
2021/09/14 01:41:09;;;;;;;8.27;7.22;;;17.50;99.90;;;;;;5036689;28;20225;-50
2021/09/14 01:43:36;;;;;;;7.15;6.45;;;17.40;99.90;;;;;;5026728;28;20178;-50
2021/09/14 01:46:02;;;;;;;9.15;6.40;;;17.40;99.90;;;;;;5031070;28;20206;-50
2021/09/14 01:48:29;;;;;;;7.70;7.00;;;17.50;99.90;;;;;;5027942;28;20293;-50
2021/09/14 01:50:54;;;;;;;7.25;6.60;;;17.50;99.90;;;;;;5030821;28;20220;-50
2021/09/14 01:53:23;;;;;;;7.07;6.17;;;17.40;99.90;;;;;;5026513;28;20572;-50
2021/09/14 01:55:48;;;;;;;6.97;6.38;;;17.50;99.90;;;;;;5035473;28;20851;-50
2021/09/14 01:58:15;;;;;;;7.90;7.20;;;17.30;99.90;;;;;;5029980;28;20202;-50
2021/09/14 02:00:49;;;;;;;7.55;6.85;;;17.30;99.90;;;;;;5025588;28;20290;-50
2021/09/14 02:08:39;;;;;;;7.03;6.43;;;17.40;99.90;;;;;;5023043;28;20194;-50
2021/09/14 02:33:46;;;;;;;7.63;7.03;;;17.10;99.90;;;;;;5026665;28;20188;-50
2021/09/14 02:39:05;;;;;;;7.07;6.47;;;17.40;99.90;;;;;;5032192;28;20777;-50
2021/09/14 03:00:25;;;;;;;7.50;6.80;;;16.60;99.90;;;;;;5025882;28;20264;-49
2021/09/14 03:02:50;;;;;;;7.43;6.80;;;17.20;99.90;;;;;;5034784;28;20654;-49
2021/09/14 03:05:16;;;;;;;8.47;6.97;;;16.90;99.90;;;;;;5031139;28;20210;-49
2021/09/14 03:07:42;;;;;;;7.77;7.07;;;17.10;99.90;;;;;;5033864;28;20224;-50
2021/09/14 03:10:08;;;;;;;7.93;6.90;;;17.10;99.90;;;;;;5034232;28;20445;-50
2021/09/14 03:12:34;;;;;;;7.57;6.78;;;17.20;99.90;;;;;;5032209;28;20187;-50
2021/09/14 03:14:59;;;;;;;7.90;7.30;;;17.10;99.90;;;;;;5024055;28;20722;-50
2021/09/14 03:17:25;;;;;;;7.40;6.70;;;17.00;99.90;;;;;;5027713;28;20745;-50
2021/09/14 03:19:51;;;;;;;7.63;7.03;;;16.90;99.90;;;;;;5026941;28;20627;-50
2021/09/14 03:22:16;;;;;;;6.83;6.27;;;17.10;99.90;;;;;;5026788;28;20182;-50
2021/09/14 03:24:42;;;;;;;7.23;6.63;;;17.20;99.90;;;;;;5029788;28;20199;-50
2021/09/14 03:27:08;;;;;;;6.50;5.93;;;17.10;99.90;;;;;;5026647;28;20202;-49
2021/09/14 03:29:33;;;;;;;7.13;6.43;;;17.30;99.90;;;;;;5027304;28;20580;-49
2021/09/14 03:31:59;;;;;;;8.20;7.00;;;17.30;99.90;;;;;;5029605;28;20194;-50
2021/09/14 03:34:25;;;;;;;7.30;6.70;;;17.40;99.90;;;;;;5032673;28;20198;-49
2021/09/14 03:36:51;;;;;;;7.23;6.63;;;17.50;99.90;;;;;;5035770;28;20216;-51
2021/09/14 03:39:16;;;;;;;7.40;6.70;;;17.30;99.90;;;;;;5035146;28;20558;-49
2021/09/14 03:41:42;;;;;;;7.13;6.47;;;17.40;99.90;;;;;;5038634;28;20273;-49
2021/09/14 03:44:08;;;;;;;6.90;6.40;;;17.10;99.90;;;;;;5030406;28;20321;-49
2021/09/14 03:46:33;;;;;;;7.20;6.60;;;17.40;99.90;;;;;;5033103;28;20185;-49
2021/09/14 03:49:00;;;;;;;6.83;6.30;;;17.40;99.90;;;;;;5030979;28;20186;-49
2021/09/14 03:51:26;;;;;;;6.55;5.95;;;17.20;99.90;;;;;;5032943;28;20182;-49
2021/09/14 03:53:51;;;;;;;7.80;6.83;;;17.30;99.90;;;;;;5029853;28;20269;-49
2021/09/14 03:56:17;;;;;;;7.70;7.10;;;17.40;99.90;;;;;;5036770;28;20201;-49
2021/09/14 03:58:43;;;;;;;8.67;7.10;;;17.40;99.90;;;;;;5025244;28;20338;-49
2021/09/14 04:01:08;;;;;;;7.03;6.53;;;17.20;99.90;;;;;;5025772;28;20210;-50
2021/09/14 04:03:40;;;;;;;7.57;6.87;;;17.20;99.90;;;;;;5032763;28;20266;-49
2021/09/14 04:08:55;;;;;;;8.55;7.85;;;17.10;99.90;;;;;;5036656;28;20602;-49
2021/09/14 04:11:22;;;;;;;7.70;7.10;;;17.30;99.90;;;;;;5032726;28;20178;-49
2021/09/14 04:13:49;;;;;;;8.10;7.45;;;17.30;99.90;;;;;;5030209;28;20244;-50
2021/09/14 04:16:15;;;;;;;8.70;8.00;;;17.30;99.90;;;;;;5031500;28;20644;-50
2021/09/14 04:18:41;;;;;;;8.07;7.27;;;17.10;99.90;;;;;;5034602;28;20217;-49
2021/09/14 04:21:06;;;;;;;8.53;7.73;;;17.10;99.90;;;;;;5029161;28;20938;-50
2021/09/14 04:23:32;;;;;;;8.90;8.00;;;17.10;99.90;;;;;;5037220;28;20630;-49
2021/09/14 04:25:58;;;;;;;7.83;7.13;;;17.20;99.90;;;;;;5032413;28;20186;-49
2021/09/14 04:28:23;;;;;;;9.60;8.13;;;17.00;99.90;;;;;;5028825;28;20209;-49
2021/09/14 04:30:49;;;;;;;8.33;7.57;;;17.10;99.90;;;;;;5032036;28;20197;-49
2021/09/14 04:33:15;;;;;;;7.70;7.07;;;16.90;99.90;;;;;;5035040;28;20201;-50
2021/09/14 04:35:40;;;;;;;8.80;8.00;;;16.90;99.90;;;;;;5026424;28;20199;-49
2021/09/14 04:38:06;;;;;;;8.67;7.87;;;17.00;99.90;;;;;;5028150;28;20218;-49
2021/09/14 04:40:32;;;;;;;8.70;7.90;;;17.00;99.90;;;;;;5029371;28;20206;-50
2021/09/14 04:42:58;;;;;;;10.73;8.57;;;16.80;99.90;;;;;;5026519;28;20647;-49
2021/09/14 04:45:23;;;;;;;8.60;7.90;;;16.80;99.90;;;;;;5031706;28;20182;-50
2021/09/14 04:47:49;;;;;;;8.37;7.57;;;17.10;99.90;;;;;;5031749;28;20461;-50
2021/09/14 04:50:15;;;;;;;10.07;8.27;;;16.80;99.90;;;;;;5027056;28;20468;-49
2021/09/14 04:52:41;;;;;;;8.40;7.53;;;17.00;99.90;;;;;;5029290;28;20316;-49
2021/09/14 04:55:07;;;;;;;9.50;8.57;;;17.00;99.90;;;;;;5036952;28;20301;-49
2021/09/14 04:57:33;;;;;;;9.10;8.30;;;16.90;99.90;;;;;;5027095;28;20206;-49
2021/09/14 04:59:59;;;;;;;8.60;7.80;;;17.00;99.90;;;;;;5026958;28;20194;-49
2021/09/14 05:02:25;;;;;;;8.75;7.95;;;17.00;99.90;;;;;;5027338;28;20203;-50
2021/09/14 05:04:51;;;;;;;8.93;8.13;;;17.00;99.90;;;;;;5032507;28;20186;-50
2021/09/14 05:07:16;;;;;;;9.30;8.50;;;17.00;99.90;;;;;;5030784;28;20216;-49
2021/09/14 05:09:42;;;;;;;8.20;7.50;;;16.90;99.90;;;;;;5034713;28;20208;-49
2021/09/14 05:12:08;;;;;;;8.80;8.00;;;16.80;99.90;;;;;;5033971;28;20273;-49
2021/09/14 05:14:34;;;;;;;8.70;7.90;;;16.60;99.90;;;;;;5031711;28;20185;-49
2021/09/14 05:17:00;;;;;;;10.00;9.00;;;16.80;99.90;;;;;;5036963;28;20985;-49
2021/09/14 05:19:37;;;;;;;11.43;9.10;;;16.90;99.90;;;;;;5031158;28;20778;-50
2021/09/14 05:22:04;;;;;;;9.13;8.35;;;16.70;99.90;;;;;;5022874;28;20178;-48
2021/09/14 05:24:31;;;;;;;9.20;8.40;;;17.00;99.90;;;;;;5033671;28;20184;-49
2021/09/14 05:26:57;;;;;;;8.38;7.65;;;17.10;99.90;;;;;;5033398;28;20677;-48
2021/09/14 05:29:24;;;;;;;9.48;8.43;;;16.90;99.90;;;;;;5024118;28;20273;-48
2021/09/14 05:31:52;;;;;;;9.77;8.82;;;17.00;99.90;;;;;;5029404;28;20609;-50
2021/09/14 05:34:19;;;;;;;9.77;8.98;;;17.10;99.90;;;;;;5023082;28;20601;-50
2021/09/14 05:36:44;;;;;;;10.25;9.35;;;17.20;99.90;;;;;;5032425;28;20213;-51
2021/09/14 05:39:11;;;;;;;9.50;8.60;;;17.00;99.90;;;;;;5028813;28;20236;-50
2021/09/14 05:41:36;;;;;;;12.77;9.20;;;16.90;99.90;;;;;;5033700;28;21000;-50
2021/09/14 05:44:02;;;;;;;12.13;9.43;;;17.00;99.90;;;;;;5027690;28;20233;-50
2021/09/14 05:46:29;;;;;;;10.15;8.77;;;17.10;99.90;;;;;;5029397;28;20206;-50
2021/09/14 05:48:55;;;;;;;9.10;8.30;;;17.00;99.90;;;;;;5028967;28;20206;-50
2021/09/14 05:51:20;;;;;;;9.83;8.97;;;17.00;99.90;;;;;;5030086;28;20441;-50
2021/09/14 05:53:46;;;;;;;8.93;8.03;;;16.90;99.90;;;;;;5029390;28;20281;-50
2021/09/14 05:56:12;;;;;;;10.20;9.30;;;17.10;99.90;;;;;;5033503;28;20612;-50
2021/09/14 05:58:38;;;;;;;9.67;8.67;;;17.00;99.90;;;;;;5017018;28;20218;-50
2021/09/14 06:01:04;;;;;;;8.90;8.20;;;17.30;99.90;;;;;;5029852;28;20464;-50
2021/09/14 06:03:30;;;;;;;9.00;8.20;;;17.20;99.90;;;;;;5028275;28;20197;-50
2021/09/14 06:05:56;;;;;;;11.65;8.55;;;17.20;99.90;;;;;;5033194;28;20186;-50
2021/09/14 06:08:22;;;;;;;9.65;8.75;;;17.60;99.90;;;;;;5029620;28;20198;-50
2021/09/14 06:10:48;;;;;;;10.00;9.03;;;17.60;99.90;;;;;;5028201;28;20206;-50
2021/09/14 06:13:15;;;;;;;10.03;9.20;;;17.90;99.90;;;;;;5031415;28;20498;-50
2021/09/14 06:15:41;;;;;;;10.45;9.45;;;17.80;99.90;;;;;;5031240;28;20441;-50
2021/09/14 06:18:06;;;;;;;9.27;8.23;;;18.00;99.90;;;;;;5032791;28;20210;-50
2021/09/14 06:20:32;;;;;;;10.57;9.03;;;18.00;99.90;;;;;;5027394;28;20206;-50
2021/09/14 06:22:58;;;;;;;9.57;8.67;;;18.40;99.90;;;;;;5028421;28;20571;-50
2021/09/14 06:25:24;;;;;;;8.73;8.03;;;18.20;99.90;;;;;;5018786;28;20446;-50
2021/09/14 06:27:50;;;;;;;9.80;8.80;;;18.40;99.90;;;;;;5025339;28;20246;-50
2021/09/14 06:30:16;;;;;;;9.55;8.63;;;18.60;99.90;;;;;;5023516;28;20190;-50
2021/09/14 06:32:42;;;;;;;9.77;8.68;;;18.60;99.90;;;;;;5024562;28;20187;-50
2021/09/14 06:35:08;;;;;;;9.40;8.47;;;18.80;99.90;;;;;;5028854;28;20500;-50
2021/09/14 06:37:34;;;;;;;9.43;8.52;;;18.90;99.90;;;;;;5021226;28;20679;-50
2021/09/14 06:40:00;;;;;;;10.17;9.27;;;19.00;99.90;;;;;;5022261;28;20309;-48
2021/09/14 06:42:28;;;;;;;10.03;9.13;;;19.10;99.90;;;;;;5018116;28;20193;-48
2021/09/14 06:44:54;;;;;;;10.23;9.30;;;19.20;99.90;;;;;;5018309;28;20675;-48
2021/09/14 06:47:20;;;;;;;9.60;8.77;;;19.30;99.90;;;;;;5014914;28;20210;-48
2021/09/14 06:49:45;;;;;;;9.80;8.90;;;19.40;99.90;;;;;;5022920;28;20225;-48
2021/09/14 06:52:11;;;;;;;9.03;8.13;;;19.40;99.90;;;;;;5014806;28;20190;-48
2021/09/14 06:54:36;;;;;;;9.63;8.77;;;19.50;99.90;;;;;;5023926;28;20262;-48
2021/09/14 06:57:02;;;;;;;9.07;8.37;;;19.80;99.90;;;;;;5020700;28;20214;-49
2021/09/14 06:59:28;;;;;;;9.30;8.40;;;20.10;99.90;;;;;;5023550;28;20190;-49
2021/09/14 07:01:54;;;;;;;7.70;7.10;;;20.70;99.90;;;;;;5019901;28;20452;-50
2021/09/14 07:04:19;;;;;;;8.37;7.67;;;22.50;99.90;;;;;;5028576;28;20218;-50
2021/09/14 07:06:46;;;;;;;7.00;6.40;;;24.50;99.90;;;;;;5026241;28;20178;-49
2021/09/14 07:09:12;;;;;;;7.57;6.87;;;26.50;97.40;;;;;;5027786;28;20195;-50
2021/09/14 07:11:38;;;;;;;7.40;6.70;;;28.40;93.00;;;;;;5027246;28;20459;-50
2021/09/14 07:14:04;;;;;;;6.80;6.10;;;30.00;88.30;;;;;;5028367;28;20498;-50
2021/09/14 07:16:32;;;;;;;10.20;9.30;;;31.20;82.10;;;;;;5030843;28;20197;-50
2021/09/14 07:18:58;;;;;;;8.30;7.70;;;32.00;77.50;;;;;;5023743;28;20865;-51
2021/09/14 07:21:24;;;;;;;8.27;7.63;;;31.90;73.40;;;;;;5024521;28;20517;-51
2021/09/14 07:23:49;;;;;;;7.80;7.10;;;32.90;72.10;;;;;;5025404;28;20957;-50
2021/09/14 07:26:15;;;;;;;7.00;6.40;;;33.50;68.20;;;;;;5026678;28;20559;-50
2021/09/14 07:28:41;;;;;;;7.10;6.47;;;34.00;65.80;;;;;;5024245;28;20255;-50
2021/09/14 07:31:08;;;;;;;6.67;6.17;;;34.30;64.20;;;;;;5026714;28;20631;-50
2021/09/14 07:33:33;;;;;;;7.30;6.80;;;34.50;62.30;;;;;;5024526;28;20539;-50
2021/09/14 07:35:59;;;;;;;10.20;9.30;;;34.80;60.30;;;;;;5029262;28;20595;-50
2021/09/14 07:38:25;;;;;;;7.87;7.17;;;34.80;58.90;;;;;;5030990;28;20213;-50
2021/09/14 07:40:50;;;;;;;9.00;6.50;;;34.50;60.40;;;;;;5032650;28;20723;-50
2021/09/14 07:43:16;;;;;;;6.90;6.23;;;35.10;59.50;;;;;;5023658;28;20718;-50
2021/09/14 07:45:42;;;;;;;6.33;5.93;;;35.90;58.30;;;;;;5022458;28;20194;-50
2021/09/14 07:48:08;;;;;;;8.43;6.50;;;36.30;56.40;;;;;;5029299;28;20997;-51
2021/09/14 07:50:33;;;;;;;7.37;6.67;;;36.80;55.50;;;;;;5029182;28;20241;-50
2021/09/14 07:52:59;;;;;;;8.23;7.50;;;36.90;54.50;;;;;;5036840;28;20202;-50
2021/09/14 07:55:25;;;;;;;7.50;6.90;;;37.20;53.90;;;;;;5024710;28;20197;-50
2021/09/14 07:57:51;;;;;;;9.23;7.57;;;37.50;53.10;;;;;;5023295;28;20981;-54
2021/09/14 08:00:17;;;;;;;8.10;7.50;;;37.90;52.50;;;;;;5030341;28;20687;-55
2021/09/14 08:02:56;;;;;;;7.73;7.13;;;38.10;51.70;;;;;;5029485;28;20673;-54
2021/09/14 08:05:23;;;;;;;11.23;7.90;;;38.50;51.00;;;;;;5025613;28;20183;-55
2021/09/14 08:07:49;;;;;;;6.53;6.03;;;38.00;50.90;;;;;;5018104;28;21103;-54
2021/09/14 08:10:14;;;;;;;10.10;9.30;;;38.00;49.50;;;;;;5030275;28;20478;-55
2021/09/14 08:12:40;;;;;;;8.47;7.80;;;37.50;51.10;;;;;;5029454;28;20232;-55
2021/09/14 08:15:06;;;;;;;8.13;6.43;;;38.00;50.00;;;;;;5022361;28;20236;-54
2021/09/14 08:17:32;;;;;;;6.10;5.60;;;38.60;49.30;;;;;;5022292;28;20245;-54
2021/09/14 08:20:00;;;;;;;5.57;5.17;;;38.50;47.60;;;;;;5027227;28;20488;-54
2021/09/14 08:22:25;;;;;;;6.27;5.67;;;38.00;48.10;;;;;;5027380;28;20661;-52
2021/09/14 08:24:51;;;;;;;8.43;5.17;;;37.40;49.00;;;;;;5039242;28;20535;-55
2021/09/14 08:27:17;;;;;;;5.60;5.20;;;37.60;49.00;;;;;;5027798;28;20553;-54
2021/09/14 08:29:42;;;;;;;5.53;5.13;;;38.10;48.20;;;;;;5028693;28;20189;-55
2021/09/14 08:32:08;;;;;;;5.63;5.13;;;36.70;49.10;;;;;;5027338;28;20289;-54
2021/09/14 08:34:34;;;;;;;5.33;5.00;;;37.30;49.10;;;;;;5024313;28;20209;-54
2021/09/14 08:37:00;;;;;;;8.10;5.43;;;37.40;48.30;;;;;;5028833;28;20504;-53
2021/09/14 08:39:25;;;;;;;5.30;4.87;;;37.30;48.80;;;;;;5025619;28;20511;-52
2021/09/14 08:41:51;;;;;;;26.27;9.80;;;37.40;49.00;;;;;;5028216;28;20196;-52
2021/09/14 08:44:18;;;;;;;5.10;4.80;;;37.60;48.60;;;;;;5022132;28;20178;-52
2021/09/14 08:46:44;;;;;;;5.43;5.03;;;36.70;49.30;;;;;;5026571;28;20205;-51
2021/09/14 08:49:12;;;;;;;6.20;5.40;;;36.00;50.80;;;;;;5027964;28;20802;-52
2021/09/14 08:51:38;;;;;;;6.10;5.70;;;35.10;52.20;;;;;;5028739;28;20190;-51
2021/09/14 08:54:03;;;;;;;5.17;4.77;;;33.80;54.30;;;;;;5023663;28;20844;-51
2021/09/14 08:56:29;;;;;;;5.30;5.00;;;32.40;57.00;;;;;;5031524;28;20284;-51
2021/09/14 08:58:59;;;;;;;5.40;4.90;;;31.50;58.70;;;;;;5026085;28;20215;-52
2021/09/14 09:01:26;;;;;;;5.53;5.13;;;30.90;61.70;;;;;;5024739;28;20210;-51
2021/09/14 09:03:59;;;;;;;6.67;6.10;;;30.60;63.00;;;;;;5024458;28;20532;-50
2021/09/14 09:06:37;;;;;;;5.87;5.47;;;30.30;64.80;;;;;;5020413;28;20450;-50
2021/09/14 09:09:13;;;;;;;6.13;5.63;;;29.50;66.70;;;;;;5027070;28;20909;-49
2021/09/14 09:12:05;;;;;;;5.33;4.93;;;28.90;69.30;;;;;;5035764;28;20450;-50
2021/09/14 09:14:40;;;;;;;6.00;5.50;;;28.70;70.50;;;;;;5028417;28;20805;-51
2021/09/14 09:17:14;;;;;;;6.90;6.20;;;28.70;72.00;;;;;;5024421;28;20511;-51
2021/09/14 09:19:41;;;;;;;5.50;5.10;;;28.80;71.60;;;;;;5029942;28;21040;-51
2021/09/14 09:22:11;;;;;;;5.40;5.00;;;28.60;72.30;;;;;;5024253;28;20443;-51
2021/09/14 09:24:45;;;;;;;6.30;5.80;;;28.90;71.50;;;;;;5028478;28;20476;-51
2021/09/14 09:27:12;;;;;;;6.30;5.80;;;29.30;70.50;;;;;;5025279;28;20597;-51
2021/09/14 09:29:39;;;;;;;5.53;5.13;;;29.50;70.10;;;;;;5035901;28;20454;-50
2021/09/14 09:32:05;;;;;;;5.90;5.47;;;29.50;70.00;;;;;;5028531;28;20590;-50
2021/09/14 09:34:31;;;;;;;6.10;5.60;;;29.10;70.80;;;;;;5024946;28;20466;-51
2021/09/14 09:37:05;;;;;;;6.77;5.90;;;28.70;72.70;;;;;;5026960;28;20457;-51
2021/09/14 09:39:45;;;;;;;5.80;5.40;;;28.40;73.60;;;;;;5023951;28;20186;-50
2021/09/14 09:42:12;;;;;;;5.47;4.90;;;28.40;75.30;;;;;;5029181;28;20441;-51
2021/09/14 09:44:38;;;;;;;5.00;4.63;;;29.20;73.80;;;;;;5027825;28;21334;-50
2021/09/14 09:47:05;;;;;;;5.83;5.33;;;30.00;70.90;;;;;;5023660;28;20475;-51
2021/09/14 09:49:32;;;;;;;5.47;5.07;;;31.10;66.10;;;;;;5022635;28;20451;-52
2021/09/14 09:51:58;;;;;;;5.50;5.10;;;32.10;62.10;;;;;;5029590;28;20525;-52
2021/09/14 09:54:24;;;;;;;5.20;4.80;;;33.00;60.10;;;;;;5022564;28;20938;-52
2021/09/14 09:56:50;;;;;;;5.87;5.47;;;33.40;59.30;;;;;;5025082;28;20220;-52
2021/09/14 09:59:17;;;;;;;5.87;5.33;;;33.20;58.70;;;;;;5024322;28;20502;-52
2021/09/14 10:01:59;;;;;;;5.30;4.90;;;33.20;58.80;;;;;;5024559;28;20559;-52
2021/09/14 10:04:26;;;;;;;5.50;5.07;;;33.40;58.80;;;;;;5030113;28;20435;-51
2021/09/14 10:06:55;;;;;;;5.77;5.20;;;33.10;58.90;;;;;;5019830;28;20464;-51
2021/09/14 10:09:21;;;;;;;5.60;5.20;;;32.80;59.40;;;;;;5024541;28;20500;-51
2021/09/14 10:11:56;;;;;;;5.97;5.37;;;32.30;61.90;;;;;;5029634;28;20838;-50
2021/09/14 10:14:23;;;;;;;5.50;5.10;;;31.80;63.10;;;;;;5023841;28;20451;-50
2021/09/14 10:16:49;;;;;;;5.70;5.20;;;31.40;63.40;;;;;;5028900;28;20495;-50
2021/09/14 10:19:30;;;;;;;6.23;5.83;;;31.10;65.30;;;;;;5024697;28;20830;-51
2021/09/14 10:22:04;;;;;;;6.40;5.80;;;30.70;65.40;;;;;;5026219;28;20909;-52
2021/09/14 10:24:31;;;;;;;5.60;5.20;;;30.30;68.30;;;;;;5035152;28;20436;-52
2021/09/14 10:27:13;;;;;;;6.60;5.60;;;30.00;68.80;;;;;;5036022;28;20466;-51
2021/09/14 10:29:43;;;;;;;7.53;6.37;;;29.80;69.80;;;;;;5028338;28;20523;-51
2021/09/14 10:32:12;;;;;;;6.63;5.60;;;30.00;70.00;;;;;;5029596;28;20773;-51
2021/09/14 10:34:43;;;;;;;8.80;5.77;;;30.30;69.30;;;;;;5023758;28;20464;-51
2021/09/14 10:37:11;;;;;;;5.17;4.77;;;30.10;68.90;;;;;;5026188;28;20480;-50
2021/09/14 10:39:39;;;;;;;6.60;5.53;;;30.10;69.20;;;;;;5032760;28;21313;-52
2021/09/14 10:42:20;;;;;;;5.40;5.00;;;29.90;69.60;;;;;;5029495;28;20463;-52
2021/09/14 10:44:47;;;;;;;5.40;5.00;;;29.90;70.50;;;;;;5029526;28;20444;-50
2021/09/14 10:47:22;;;;;;;5.57;5.20;;;30.20;69.70;;;;;;5031611;28;20460;-50
2021/09/14 10:50:00;;;;;;;6.00;5.50;;;30.10;69.70;;;;;;5023233;28;20448;-50
2021/09/14 10:52:50;;;;;;;5.27;4.83;;;29.60;71.30;;;;;;5022945;28;20458;-50
2021/09/14 10:55:18;;;;;;;6.47;5.87;;;29.80;71.50;;;;;;5026607;28;20458;-50
2021/09/14 10:57:45;;;;;;;6.63;5.40;;;29.80;72.10;;;;;;5032098;28;20472;-50
2021/09/14 11:00:15;;;;;;;6.00;5.47;;;29.70;72.00;;;;;;5035223;28;20496;-50
2021/09/14 11:02:40;;;;;;;5.30;4.90;;;29.80;71.60;;;;;;5030440;28;20937;-50
2021/09/14 11:05:07;;;;;;;5.87;4.80;;;30.40;69.50;;;;;;5027155;28;20433;-50
2021/09/14 11:07:33;;;;;;;5.93;5.33;;;30.70;69.20;;;;;;5028589;28;20209;-50
2021/09/14 11:10:01;;;;;;;6.10;5.70;;;30.90;68.50;;;;;;5027383;28;20451;-50
2021/09/14 11:12:30;;;;;;;6.10;5.60;;;30.90;67.80;;;;;;5021194;28;20193;-50
2021/09/14 11:14:58;;;;;;;6.10;5.50;;;30.40;69.20;;;;;;5029435;28;20440;-50
2021/09/14 11:17:32;;;;;;;6.27;5.77;;;30.40;70.10;;;;;;5032839;28;20820;-50
2021/09/14 11:20:18;;;;;;;7.07;6.57;;;30.40;71.30;;;;;;5026713;28;20469;-50
2021/09/14 11:22:45;;;;;;;5.77;5.27;;;30.50;71.00;;;;;;5021024;28;20444;-50
2021/09/14 11:25:22;;;;;;;10.17;6.40;;;30.40;69.50;;;;;;5028691;28;20478;-50
2021/09/14 11:27:59;;;;;;;5.93;5.43;;;30.20;71.20;;;;;;5024109;28;21014;-50
2021/09/14 11:30:26;;;;;;;5.87;5.37;;;30.30;70.80;;;;;;5029019;28;20449;-50
2021/09/14 11:32:52;;;;;;;5.80;5.30;;;30.40;69.60;;;;;;5023153;28;20491;-50
2021/09/14 11:35:19;;;;;;;6.37;5.77;;;30.60;69.60;;;;;;5031682;28;21022;-50
2021/09/14 11:37:56;;;;;;;7.43;6.87;;;30.60;69.70;;;;;;5036112;28;21024;-50
2021/09/14 11:40:22;;;;;;;5.03;4.63;;;30.50;69.30;;;;;;5031585;28;20821;-50
2021/09/14 11:42:58;;;;;;;5.50;5.10;;;30.10;71.10;;;;;;5024915;28;20448;-50
2021/09/14 11:45:27;;;;;;;6.03;5.53;;;30.10;70.70;;;;;;5031046;28;20184;-50
2021/09/14 11:47:54;;;;;;;7.07;6.47;;;30.00;71.30;;;;;;5041412;28;20478;-51
2021/09/14 11:50:27;;;;;;;6.53;6.03;;;29.90;71.90;;;;;;5027593;28;20819;-50
2021/09/14 11:53:07;;;;;;;5.80;5.40;;;29.50;72.70;;;;;;5030509;28;20447;-49
2021/09/14 11:55:34;;;;;;;6.00;5.50;;;29.30;73.50;;;;;;5031704;28;20538;-51
2021/09/14 11:58:00;;;;;;;5.97;5.47;;;29.40;75.20;;;;;;5028332;28;20478;-49
2021/09/14 12:00:45;;;;;;;7.63;5.60;;;29.50;73.70;;;;;;5036922;28;20466;-49
2021/09/14 12:03:14;;;;;;;5.90;5.40;;;29.60;73.70;;;;;;5039987;28;20461;-49
2021/09/14 12:05:40;;;;;;;11.60;5.60;;;29.80;73.10;;;;;;5030333;28;20452;-49
2021/09/14 12:08:11;;;;;;;6.57;6.03;;;29.90;73.10;;;;;;5027795;28;20457;-49
2021/09/14 12:10:44;;;;;;;6.83;6.13;;;30.00;73.80;;;;;;5032202;28;20281;-50
2021/09/14 12:13:15;;;;;;;6.37;5.53;;;29.80;73.60;;;;;;5019168;28;20490;-50
2021/09/14 12:15:41;;;;;;;5.90;5.50;;;29.60;74.00;;;;;;5018328;28;20454;-50
2021/09/14 12:18:07;;;;;;;7.50;5.60;;;29.30;75.80;;;;;;5031688;28;20454;-50
2021/09/14 12:20:33;;;;;;;6.63;6.13;;;29.40;76.20;;;;;;5028379;28;20475;-50
2021/09/14 12:22:59;;;;;;;6.57;5.90;;;29.40;75.80;;;;;;5035738;28;20560;-50
2021/09/14 12:25:25;;;;;;;5.00;4.60;;;29.00;77.40;;;;;;5031307;28;20920;-50
2021/09/14 12:27:51;;;;;;;6.40;5.90;;;28.70;78.10;;;;;;5025696;28;21205;-50
2021/09/14 12:30:17;;;;;;;7.60;6.93;;;28.70;77.10;;;;;;5027588;28;20445;-54
2021/09/14 12:32:42;;;;;;;7.00;6.30;;;28.70;77.20;;;;;;5026868;28;20562;-53
2021/09/14 12:35:08;;;;;;;6.27;5.70;;;28.50;77.40;;;;;;5030812;28;20613;-52
2021/09/14 12:37:34;;;;;;;7.57;6.07;;;28.50;78.20;;;;;;5028766;28;20235;-54
2021/09/14 12:40:00;;;;;;;7.00;6.07;;;28.50;77.30;;;;;;5028250;28;20554;-55
2021/09/14 12:42:25;;;;;;;5.93;5.53;;;28.60;78.10;;;;;;5029210;28;20563;-56
2021/09/14 12:44:51;;;;;;;6.70;5.77;;;28.70;77.20;;;;;;5023156;28;20190;-52
2021/09/14 12:47:17;;;;;;;6.80;6.00;;;28.70;77.10;;;;;;5030639;28;20679;-52
2021/09/14 12:49:42;;;;;;;6.07;5.47;;;28.90;77.00;;;;;;5018725;28;20192;-52
2021/09/14 12:52:08;;;;;;;8.63;6.07;;;28.90;76.70;;;;;;5029399;28;20188;-52
2021/09/14 12:54:34;;;;;;;7.13;6.53;;;29.00;76.50;;;;;;5020733;28;20275;-52
2021/09/14 12:57:00;;;;;;;7.33;6.63;;;29.10;75.50;;;;;;5028208;28;20727;-53
2021/09/14 12:59:26;;;;;;;6.40;5.90;;;29.10;76.00;;;;;;5023020;28;20176;-53
2021/09/14 13:01:52;;;;;;;6.13;5.73;;;29.00;76.40;;;;;;5018471;28;20484;-52
2021/09/14 13:04:17;;;;;;;6.07;5.57;;;29.10;76.70;;;;;;5028328;28;20270;-53
2021/09/14 13:06:43;;;;;;;6.67;5.97;;;29.10;76.20;;;;;;5029830;28;20192;-52
2021/09/14 13:09:09;;;;;;;6.47;5.87;;;29.30;76.00;;;;;;5027242;28;20631;-55
2021/09/14 13:11:34;;;;;;;7.47;5.87;;;29.40;75.90;;;;;;5027387;28;20309;-51
2021/09/14 13:16:44;;;;;;;6.33;5.83;;;29.50;74.10;;;;;;5030946;28;20575;-51
2021/09/14 13:19:10;;;;;;;6.80;6.20;;;29.40;75.10;;;;;;5023117;28;20455;-50
2021/09/14 13:21:36;;;;;;;6.77;6.27;;;29.40;74.20;;;;;;5030407;28;20563;-50
2021/09/14 13:24:02;;;;;;;6.30;5.90;;;29.30;75.90;;;;;;5028749;28;20214;-50
2021/09/14 13:26:27;;;;;;;6.80;6.20;;;29.00;76.50;;;;;;5030737;28;20201;-50
2021/09/14 13:28:53;;;;;;;7.27;6.67;;;29.10;76.20;;;;;;5027807;28;20506;-50
2021/09/14 13:31:19;;;;;;;7.30;5.57;;;28.90;76.50;;;;;;5034296;28;20197;-51
2021/09/14 13:33:45;;;;;;;8.97;8.17;;;28.80;76.40;;;;;;5038820;28;20637;-51
2021/09/14 13:36:14;;;;;;;7.07;6.47;;;28.70;78.10;;;;;;5025744;28;20454;-50
2021/09/14 13:38:40;;;;;;;6.90;6.40;;;28.80;78.50;;;;;;5024963;28;20579;-51
2021/09/14 13:41:08;;;;;;;6.53;6.00;;;28.70;78.10;;;;;;5028962;28;20600;-51